createdAt,value
2023-09-23T00:01:36.020Z,9.40
2023-09-23T00:04:02.749Z,8.63
2023-09-23T00:06:29.487Z,7.93
2023-09-23T00:08:56.072Z,8.30
2023-09-23T00:11:22.592Z,8.65
2023-09-23T00:13:49.108Z,8.57
2023-09-23T00:16:15.942Z,8.50
2023-09-23T00:18:43.636Z,9.15
2023-09-23T00:21:10.252Z,8.40
2023-09-23T00:23:36.845Z,9.35
2023-09-23T00:26:04.425Z,9.25
2023-09-23T00:28:30.965Z,9.10
2023-09-23T00:30:57.729Z,8.65
2023-09-23T00:33:24.312Z,8.90
2023-09-23T00:35:50.825Z,8.95
2023-09-23T00:38:17.465Z,8.77
2023-09-23T00:40:43.934Z,9.05
2023-09-23T00:43:10.409Z,7.68
2023-09-23T00:45:36.985Z,8.63
2023-09-23T00:48:03.607Z,8.30
2023-09-23T00:50:30.182Z,8.52
2023-09-23T00:52:56.874Z,9.95
2023-09-23T00:55:23.476Z,7.93
2023-09-23T00:57:49.999Z,7.90
2023-09-23T01:00:16.673Z,8.98
2023-09-23T01:02:43.408Z,9.57
2023-09-23T01:05:10.031Z,7.78
2023-09-23T01:07:36.701Z,8.40
2023-09-23T01:10:03.394Z,7.93
2023-09-23T01:12:30.005Z,7.88
2023-09-23T01:14:56.636Z,8.02
2023-09-23T01:17:23.136Z,8.50
2023-09-23T01:19:49.737Z,7.95
2023-09-23T01:22:16.349Z,8.23
2023-09-23T01:24:43.075Z,8.45
2023-09-23T01:27:09.570Z,8.57
2023-09-23T01:29:36.173Z,8.77
2023-09-23T01:32:02.706Z,7.35
2023-09-23T01:34:29.183Z,8.30
2023-09-23T01:36:55.727Z,8.13
2023-09-23T01:39:22.218Z,8.55
2023-09-23T01:41:48.769Z,8.57
2023-09-23T01:44:15.363Z,8.43
2023-09-23T01:46:41.974Z,8.98
2023-09-23T01:49:08.500Z,8.52
2023-09-23T01:51:35.121Z,7.88
2023-09-23T01:54:01.713Z,8.25
2023-09-23T01:56:28.225Z,7.55
2023-09-23T01:58:54.813Z,7.50
2023-09-23T02:01:21.350Z,9.23
2023-09-23T02:03:47.972Z,7.88
2023-09-23T02:06:14.637Z,8.57
2023-09-23T02:08:41.223Z,8.40
2023-09-23T02:11:07.751Z,8.55
2023-09-23T02:13:34.413Z,8.65
2023-09-23T02:16:00.967Z,7.93
2023-09-23T02:18:27.730Z,9.35
2023-09-23T02:20:54.560Z,8.57
2023-09-23T02:23:21.274Z,8.63
2023-09-23T02:25:47.825Z,9.20
2023-09-23T02:28:14.447Z,7.47
2023-09-23T02:30:40.969Z,8.65
2023-09-23T02:33:07.626Z,8.05
2023-09-23T02:35:34.249Z,8.18
2023-09-23T02:38:00.740Z,9.70
2023-09-23T02:40:27.247Z,8.75
2023-09-23T02:42:54.008Z,8.55
2023-09-23T02:45:20.828Z,9.02
2023-09-23T02:47:47.568Z,8.90
2023-09-23T02:50:14.788Z,8.52
2023-09-23T02:52:41.663Z,8.32
2023-09-23T02:55:08.343Z,7.80
2023-09-23T02:57:34.960Z,8.00
2023-09-23T03:00:01.458Z,8.40
2023-09-23T03:02:30.562Z,7.57
2023-09-23T03:04:57.422Z,9.40
2023-09-23T03:07:23.977Z,9.13
2023-09-23T03:09:50.458Z,8.55
2023-09-23T03:12:17.006Z,9.75
2023-09-23T03:14:43.544Z,9.63
2023-09-23T03:17:10.285Z,8.25
2023-09-23T03:19:36.873Z,8.35
2023-09-23T03:22:03.626Z,8.63
2023-09-23T03:24:30.151Z,8.43
2023-09-23T03:26:57.305Z,8.25
2023-09-23T03:29:23.907Z,9.05
2023-09-23T03:31:50.574Z,8.77
2023-09-23T03:34:17.187Z,8.77
2023-09-23T03:36:43.692Z,8.60
2023-09-23T03:39:10.225Z,8.88
2023-09-23T03:41:36.834Z,9.73
2023-09-23T03:44:03.374Z,8.45
2023-09-23T03:46:29.919Z,9.75
2023-09-23T03:48:56.568Z,9.10
2023-09-23T03:51:23.093Z,8.77
2023-09-23T03:53:49.584Z,8.07
2023-09-23T03:56:16.174Z,7.97
2023-09-23T03:58:42.685Z,7.88
2023-09-23T04:01:09.228Z,7.72
2023-09-23T04:03:35.816Z,8.40
2023-09-23T04:06:02.331Z,8.52
2023-09-23T04:08:28.916Z,8.68
2023-09-23T04:10:55.853Z,8.80
2023-09-23T04:13:22.526Z,8.35
2023-09-23T04:15:49.093Z,7.85
2023-09-23T04:18:15.668Z,8.50
2023-09-23T04:20:42.271Z,8.75
2023-09-23T04:23:08.828Z,7.88
2023-09-23T04:25:35.450Z,9.07
2023-09-23T04:28:02.026Z,9.95
2023-09-23T04:30:29.001Z,8.77
2023-09-23T04:32:55.637Z,9.70
2023-09-23T04:35:22.720Z,8.60
2023-09-23T04:37:49.439Z,9.20
2023-09-23T04:40:16.521Z,8.32
2023-09-23T04:42:43.747Z,8.05
2023-09-23T04:45:10.314Z,9.00
2023-09-23T04:47:36.856Z,9.63
2023-09-23T04:50:03.391Z,8.57
2023-09-23T04:52:30.545Z,9.00
2023-09-23T04:54:57.127Z,9.38
2023-09-23T04:57:23.641Z,8.95
2023-09-23T04:59:50.120Z,8.88
2023-09-23T05:02:16.844Z,9.35
2023-09-23T05:04:43.523Z,9.27
2023-09-23T05:07:10.037Z,8.65
2023-09-23T05:09:36.587Z,8.68
2023-09-23T05:12:04.224Z,9.30
2023-09-23T05:14:30.783Z,8.85
2023-09-23T05:16:57.368Z,8.65
2023-09-23T05:19:23.872Z,9.23
2023-09-23T05:21:51.991Z,9.55
2023-09-23T05:24:18.621Z,8.55
2023-09-23T05:26:45.120Z,8.88
2023-09-23T05:29:11.771Z,8.77
2023-09-23T05:31:38.360Z,9.25
2023-09-23T05:34:04.869Z,10.35
2023-09-23T05:36:31.395Z,8.43
2023-09-23T05:38:58.002Z,7.80
2023-09-23T05:41:24.512Z,9.68
2023-09-23T05:43:51.032Z,9.25
2023-09-23T05:46:17.711Z,8.45
2023-09-23T05:48:46.044Z,8.32
2023-09-23T05:51:14.142Z,8.23
2023-09-23T05:53:40.691Z,9.60
2023-09-23T05:56:07.226Z,8.73
2023-09-23T05:58:33.784Z,8.68
2023-09-23T06:01:00.430Z,9.25
2023-09-23T06:03:27.003Z,8.95
2023-09-23T06:05:53.567Z,9.38
2023-09-23T06:08:20.284Z,8.60
2023-09-23T06:10:46.838Z,9.93
2023-09-23T06:13:13.411Z,8.63
2023-09-23T06:15:40.185Z,8.50
2023-09-23T06:18:07.530Z,9.18
2023-09-23T06:20:34.668Z,8.63
2023-09-23T06:23:02.202Z,10.35
2023-09-23T06:25:28.958Z,8.80
2023-09-23T06:27:55.831Z,8.98
2023-09-23T06:30:22.612Z,9.52
2023-09-23T06:32:49.632Z,8.98
2023-09-23T06:35:16.262Z,9.38
2023-09-23T06:37:42.885Z,10.63
2023-09-23T06:40:09.461Z,12.40
2023-09-23T06:42:36.151Z,8.45
2023-09-23T06:45:03.197Z,8.68
2023-09-23T06:47:30.594Z,8.45
2023-09-23T06:49:57.276Z,8.30
2023-09-23T06:52:23.893Z,7.07
2023-09-23T06:54:50.559Z,7.75
2023-09-23T06:57:18.133Z,8.23
2023-09-23T06:59:45.492Z,8.10
2023-09-23T07:02:12.456Z,8.30
2023-09-23T07:04:39.025Z,8.73
2023-09-23T07:07:05.619Z,8.20
2023-09-23T07:09:32.169Z,8.90
2023-09-23T07:11:58.804Z,10.68
2023-09-23T07:14:25.486Z,8.02
2023-09-23T07:16:52.195Z,9.02
2023-09-23T07:19:18.812Z,8.75
2023-09-23T07:21:45.404Z,9.80
2023-09-23T07:24:13.817Z,10.52
2023-09-23T07:26:40.866Z,8.15
2023-09-23T07:29:07.494Z,8.60
2023-09-23T07:31:34.172Z,8.55
2023-09-23T07:34:00.706Z,9.70
2023-09-23T07:36:27.341Z,9.00
2023-09-23T07:38:53.809Z,8.70
2023-09-23T07:41:20.429Z,9.07
2023-09-23T07:43:47.217Z,9.30
2023-09-23T07:46:13.837Z,7.97
2023-09-23T07:48:40.382Z,6.68
2023-09-23T07:51:06.975Z,7.32
2023-09-23T07:53:33.474Z,7.03
2023-09-23T07:56:00.078Z,7.70
2023-09-23T07:58:26.700Z,6.93
2023-09-23T08:00:53.237Z,7.57
2023-09-23T08:03:19.913Z,6.80
2023-09-23T08:05:46.609Z,7.47
2023-09-23T08:08:13.172Z,7.13
2023-09-23T08:10:39.730Z,7.07
2023-09-23T08:13:06.311Z,7.20
2023-09-23T08:15:32.857Z,6.90
2023-09-23T08:17:59.412Z,6.55
2023-09-23T08:20:26.083Z,6.82
2023-09-23T08:22:52.744Z,6.30
2023-09-23T08:25:19.353Z,7.25
2023-09-23T08:27:46.264Z,6.20
2023-09-23T08:30:12.758Z,6.97
2023-09-23T08:32:39.342Z,8.32
2023-09-23T08:35:06.195Z,7.53
2023-09-23T08:37:32.747Z,6.53
2023-09-23T08:39:59.262Z,7.18
2023-09-23T08:42:25.952Z,7.35
2023-09-23T08:44:52.461Z,8.05
2023-09-23T08:47:19.037Z,7.43
2023-09-23T08:49:45.842Z,7.53
2023-09-23T08:52:12.310Z,6.95
2023-09-23T08:54:38.793Z,6.05
2023-09-23T08:57:05.397Z,6.20
2023-09-23T08:59:31.939Z,6.85
2023-09-23T09:01:58.488Z,5.78
2023-09-23T09:04:25.178Z,5.68
2023-09-23T09:06:51.640Z,5.78
2023-09-23T09:09:18.368Z,5.60
2023-09-23T09:11:45.079Z,5.43
2023-09-23T09:14:11.666Z,5.45
2023-09-23T09:16:38.227Z,5.68
2023-09-23T09:19:04.885Z,5.93
2023-09-23T09:21:31.414Z,6.13
2023-09-23T09:23:57.894Z,5.43
2023-09-23T09:26:24.555Z,5.05
2023-09-23T09:28:51.135Z,5.15
2023-09-23T09:31:17.681Z,5.55
2023-09-23T09:33:44.464Z,5.63
2023-09-23T09:36:10.921Z,5.75
2023-09-23T09:38:37.457Z,6.10
2023-09-23T09:41:04.223Z,12.20
2023-09-23T09:43:31.075Z,4.63
2023-09-23T09:45:57.617Z,5.40
2023-09-23T09:48:24.255Z,5.00
2023-09-23T09:50:50.798Z,5.78
2023-09-23T09:53:17.428Z,4.78
2023-09-23T09:55:44.086Z,5.40
2023-09-23T09:58:10.540Z,4.65
2023-09-23T10:00:37.088Z,5.28
2023-09-23T10:03:03.896Z,4.13
2023-09-23T10:05:30.597Z,4.10
2023-09-23T10:07:57.206Z,5.20
2023-09-23T10:10:23.828Z,5.40
2023-09-23T10:12:50.316Z,4.30
2023-09-23T10:15:16.795Z,5.05
2023-09-23T10:17:43.359Z,5.10
2023-09-23T10:20:09.979Z,4.38
2023-09-23T10:22:36.574Z,5.40
2023-09-23T10:25:03.174Z,6.07
2023-09-23T10:27:32.711Z,5.63
2023-09-23T10:29:59.401Z,4.90
2023-09-23T10:32:26.163Z,4.93
2023-09-23T10:34:53.379Z,5.07
2023-09-23T10:37:20.078Z,5.15
2023-09-23T10:39:46.676Z,4.75
2023-09-23T10:42:13.381Z,5.15
2023-09-23T10:44:40.013Z,5.15
2023-09-23T10:47:06.722Z,4.20
2023-09-23T10:49:33.213Z,4.40
2023-09-23T10:51:59.744Z,5.03
2023-09-23T10:54:26.360Z,5.60
2023-09-23T10:56:52.881Z,5.35
2023-09-23T10:59:19.465Z,4.53
2023-09-23T11:01:46.155Z,5.13
2023-09-23T11:04:12.714Z,5.50
2023-09-23T11:06:39.257Z,4.75
2023-09-23T11:09:05.818Z,4.63
2023-09-23T11:11:32.428Z,4.22
2023-09-23T11:13:58.981Z,5.47
2023-09-23T11:16:25.844Z,5.15
2023-09-23T11:18:52.403Z,4.72
2023-09-23T11:21:19.067Z,4.82
2023-09-23T11:23:45.624Z,4.88
2023-09-23T11:26:12.168Z,5.15
2023-09-23T11:28:38.761Z,5.07
2023-09-23T11:31:05.319Z,4.95
2023-09-23T11:33:31.888Z,5.50
2023-09-23T11:35:58.502Z,5.85
2023-09-23T11:38:25.394Z,5.38
2023-09-23T11:40:52.038Z,4.38
2023-09-23T11:43:18.543Z,5.55
2023-09-23T11:45:45.302Z,5.50
2023-09-23T11:48:12.022Z,5.10
2023-09-23T11:50:38.780Z,4.97
2023-09-23T11:53:05.453Z,4.88
2023-09-23T11:55:31.980Z,5.60
2023-09-23T11:57:58.456Z,5.63
2023-09-23T12:00:25.020Z,5.03
2023-09-23T12:02:51.670Z,5.00
2023-09-23T12:05:18.497Z,4.97
2023-09-23T12:07:45.336Z,5.90
2023-09-23T12:10:12.258Z,4.47
2023-09-23T12:12:38.781Z,4.57
2023-09-23T12:15:05.347Z,4.88
2023-09-23T12:17:32.332Z,5.82
2023-09-23T12:19:59.229Z,4.43
2023-09-23T12:22:25.958Z,4.53
2023-09-23T12:24:52.469Z,4.80
2023-09-23T12:27:18.936Z,4.30
2023-09-23T12:29:45.665Z,4.30
2023-09-23T12:32:12.163Z,5.47
2023-09-23T12:34:38.837Z,4.50
2023-09-23T12:37:05.626Z,5.00
2023-09-23T12:39:32.177Z,4.93
2023-09-23T12:41:58.686Z,5.25
2023-09-23T12:44:25.304Z,4.20
2023-09-23T12:46:51.796Z,4.35
2023-09-23T12:49:18.290Z,4.55
2023-09-23T12:51:44.857Z,3.92
2023-09-23T12:54:11.598Z,5.10
2023-09-23T12:56:38.592Z,4.07
2023-09-23T12:59:06.163Z,4.80
2023-09-23T13:01:32.745Z,4.07
2023-09-23T13:03:59.388Z,4.13
2023-09-23T13:06:26.102Z,5.15
2023-09-23T13:08:52.619Z,3.97
2023-09-23T13:11:19.150Z,4.00
2023-09-23T13:13:51.181Z,3.83
2023-09-23T13:16:18.804Z,3.90
2023-09-23T13:18:45.865Z,3.92
2023-09-23T13:21:12.692Z,4.55
2023-09-23T13:23:39.275Z,3.58
2023-09-23T13:26:06.476Z,4.07
2023-09-23T13:28:34.002Z,4.45
2023-09-23T13:31:00.652Z,4.13
2023-09-23T13:33:27.375Z,4.38
2023-09-23T13:35:54.037Z,4.30
2023-09-23T13:38:20.796Z,4.13
2023-09-23T13:40:47.361Z,3.90
2023-09-23T13:43:13.959Z,4.20
2023-09-23T13:45:41.742Z,4.35
2023-09-23T13:48:08.689Z,4.07
2023-09-23T13:50:35.870Z,4.20
2023-09-23T13:53:02.516Z,4.80
2023-09-23T13:55:29.019Z,4.38
2023-09-23T13:57:55.612Z,5.45
2023-09-23T14:00:22.167Z,5.18
2023-09-23T14:02:48.809Z,5.55
2023-09-23T14:05:15.459Z,5.70
2023-09-23T14:07:42.025Z,4.60
2023-09-23T14:10:20.501Z,4.60
2023-09-23T14:12:48.264Z,5.03
2023-09-23T14:15:14.735Z,4.65
2023-09-23T14:17:41.380Z,4.50
2023-09-23T14:20:08.074Z,5.22
2023-09-23T14:22:34.746Z,4.45
2023-09-23T14:25:01.362Z,4.80
2023-09-23T14:27:28.445Z,4.32
2023-09-23T14:29:55.012Z,4.97
2023-09-23T14:32:21.616Z,4.32
2023-09-23T14:34:48.233Z,4.35
2023-09-23T14:37:14.705Z,4.97
2023-09-23T14:39:41.254Z,4.32
2023-09-23T14:42:07.839Z,4.57
2023-09-23T14:44:34.346Z,4.57
2023-09-23T14:47:00.853Z,4.93
2023-09-23T14:49:27.523Z,4.60
2023-09-23T14:51:53.997Z,4.88
2023-09-23T14:54:20.620Z,5.50
2023-09-23T14:56:47.176Z,5.38
2023-09-23T14:59:13.765Z,5.97
2023-09-23T15:01:40.306Z,6.43
2023-09-23T15:04:07.025Z,6.00
2023-09-23T15:06:33.604Z,5.95
2023-09-23T15:09:01.523Z,6.68
2023-09-23T15:11:28.816Z,6.20
2023-09-23T15:13:55.594Z,6.97
2023-09-23T15:16:22.400Z,5.97
2023-09-23T15:18:49.227Z,6.95
2023-09-23T15:21:16.931Z,6.95
2023-09-23T15:23:43.462Z,7.93
2023-09-23T15:26:10.106Z,8.27
2023-09-23T15:28:36.641Z,9.07
2023-09-23T15:31:03.221Z,8.88
2023-09-23T15:33:29.880Z,12.90
2023-09-23T15:35:56.409Z,13.75
2023-09-23T15:38:22.984Z,11.18
2023-09-23T15:40:49.697Z,8.85
2023-09-23T15:43:16.183Z,9.43
2023-09-23T15:45:42.693Z,9.25
2023-09-23T15:48:09.548Z,9.30
2023-09-23T15:50:36.207Z,9.00
2023-09-23T15:53:02.849Z,10.98
2023-09-23T15:55:29.841Z,9.80
2023-09-23T15:57:56.365Z,10.88
2023-09-23T16:00:22.994Z,10.18
2023-09-23T16:02:49.721Z,10.02
2023-09-23T16:05:16.506Z,9.80
2023-09-23T16:07:43.025Z,14.68
2023-09-23T16:10:09.611Z,14.02
2023-09-23T16:12:36.107Z,14.52
2023-09-23T16:15:02.582Z,11.90
2023-09-23T16:17:31.484Z,14.63
2023-09-23T16:19:58.032Z,14.57
2023-09-23T16:22:24.528Z,15.05
2023-09-23T16:24:51.101Z,14.38
2023-09-23T16:27:17.612Z,15.75
2023-09-23T16:29:44.132Z,15.23
2023-09-23T16:32:10.895Z,16.27
2023-09-23T16:34:37.555Z,17.98
2023-09-23T16:37:04.148Z,16.13
2023-09-23T16:39:30.754Z,16.75
2023-09-23T16:41:57.471Z,16.17
2023-09-23T16:44:24.078Z,16.65
2023-09-23T16:46:50.770Z,17.75
2023-09-23T16:49:17.339Z,18.45
2023-09-23T16:51:43.802Z,16.40
2023-09-23T16:54:10.489Z,17.90
2023-09-23T16:56:37.036Z,16.45
2023-09-23T16:59:03.750Z,19.33
2023-09-23T17:01:30.343Z,18.35
2023-09-23T17:03:57.083Z,16.67
2023-09-23T17:06:25.237Z,18.38
2023-09-23T17:08:52.489Z,20.33
2023-09-23T17:11:20.229Z,18.67
2023-09-23T17:13:47.163Z,20.08
2023-09-23T17:16:13.946Z,17.73
2023-09-23T17:18:40.596Z,19.48
2023-09-23T17:21:07.154Z,21.60
2023-09-23T17:23:33.880Z,17.85
2023-09-23T17:26:00.435Z,16.27
2023-09-23T17:28:27.027Z,17.73
2023-09-23T17:30:53.689Z,17.30
2023-09-23T17:33:20.410Z,19.40
2023-09-23T17:35:47.127Z,18.02
2023-09-23T17:38:13.824Z,26.35
2023-09-23T17:40:40.334Z,16.83
2023-09-23T17:43:06.914Z,17.75
2023-09-23T17:45:33.463Z,17.83
2023-09-23T17:48:00.052Z,16.80
2023-09-23T17:50:26.665Z,16.90
2023-09-23T17:52:53.831Z,17.10
2023-09-23T17:55:20.525Z,15.40
2023-09-23T17:57:47.144Z,17.38
2023-09-23T18:00:13.873Z,19.13
2023-09-23T18:02:40.595Z,17.65
2023-09-23T18:05:07.380Z,17.95
2023-09-23T18:07:34.096Z,19.70
2023-09-23T18:10:00.609Z,18.70
2023-09-23T18:12:27.144Z,16.55
2023-09-23T18:14:53.694Z,19.88
2023-09-23T18:17:20.295Z,17.25
2023-09-23T18:19:46.885Z,18.10
2023-09-23T18:22:13.510Z,16.88
2023-09-23T18:24:40.112Z,17.48
2023-09-23T18:27:06.659Z,30.40
2023-09-23T18:29:33.310Z,17.58
2023-09-23T18:31:59.797Z,16.48
2023-09-23T18:34:26.290Z,17.00
2023-09-23T18:36:52.982Z,15.77
2023-09-23T18:39:19.505Z,17.08
2023-09-23T18:41:46.073Z,19.02
2023-09-23T18:44:12.755Z,18.67
2023-09-23T18:46:39.238Z,17.40
2023-09-23T18:49:05.803Z,17.83
2023-09-23T18:51:33.043Z,17.95
2023-09-23T18:53:59.612Z,17.65
2023-09-23T18:56:26.142Z,18.45
2023-09-23T18:58:52.738Z,18.08
2023-09-23T19:01:19.359Z,17.30
2023-09-23T19:03:46.178Z,17.67
2023-09-23T19:06:13.027Z,17.42
2023-09-23T19:08:39.523Z,16.17
2023-09-23T19:11:06.079Z,14.32
2023-09-23T19:13:32.783Z,15.50
2023-09-23T19:15:59.346Z,15.57
2023-09-23T19:18:25.872Z,14.88
2023-09-23T19:20:52.538Z,12.25
2023-09-23T19:23:19.080Z,12.65
2023-09-23T19:25:45.652Z,14.15
2023-09-23T19:28:12.275Z,12.27
2023-09-23T19:30:38.805Z,12.90
2023-09-23T19:33:07.160Z,14.00
2023-09-23T19:35:33.818Z,11.90
2023-09-23T19:38:00.342Z,11.38
2023-09-23T19:40:26.936Z,11.57
2023-09-23T19:42:53.646Z,12.98
2023-09-23T19:45:20.198Z,12.68
2023-09-23T19:47:46.868Z,11.75
2023-09-23T19:50:13.572Z,17.48
2023-09-23T19:52:40.173Z,12.50
2023-09-23T19:55:06.739Z,12.70
2023-09-23T19:57:33.345Z,11.80
2023-09-23T19:59:59.928Z,11.60
2023-09-23T20:02:26.535Z,11.50
2023-09-23T20:04:53.314Z,13.27
2023-09-23T20:07:19.859Z,11.23
2023-09-23T20:09:46.334Z,12.43
2023-09-23T20:12:13.000Z,12.10
2023-09-23T20:14:39.634Z,12.70
2023-09-23T20:17:06.252Z,12.63
2023-09-23T20:19:33.420Z,13.48
2023-09-23T20:22:00.003Z,12.50
2023-09-23T20:24:26.490Z,13.00
2023-09-23T20:26:53.098Z,12.77
2023-09-23T20:29:19.721Z,14.10
2023-09-23T20:31:46.212Z,13.77
2023-09-23T20:34:12.780Z,14.75
2023-09-23T20:36:39.270Z,16.83
2023-09-23T20:39:05.806Z,16.13
2023-09-23T20:41:32.477Z,15.80
2023-09-23T20:43:59.079Z,16.33
2023-09-23T20:46:25.668Z,16.77
2023-09-23T20:48:52.290Z,17.63
2023-09-23T20:51:18.909Z,16.38
2023-09-23T20:53:45.739Z,15.95
2023-09-23T20:56:12.684Z,16.90
2023-09-23T20:58:39.171Z,17.40
2023-09-23T21:01:05.776Z,15.25
2023-09-23T21:03:32.496Z,13.88
2023-09-23T21:05:59.078Z,13.43
2023-09-23T21:08:25.657Z,11.93
2023-09-23T21:10:52.276Z,11.20
2023-09-23T21:13:18.818Z,11.95
2023-09-23T21:15:45.366Z,11.00
2023-09-23T21:18:12.081Z,11.27
2023-09-23T21:20:38.668Z,8.95
2023-09-23T21:23:05.278Z,9.88
2023-09-23T21:25:31.948Z,9.63
2023-09-23T21:27:58.525Z,11.73
2023-09-23T21:30:25.080Z,10.10
2023-09-23T21:32:51.715Z,10.48
2023-09-23T21:35:18.329Z,9.95
2023-09-23T21:37:44.945Z,9.98
2023-09-23T21:40:11.650Z,8.38
2023-09-23T21:42:38.186Z,9.02
2023-09-23T21:45:04.655Z,8.07
2023-09-23T21:47:32.368Z,9.27
2023-09-23T21:49:58.970Z,8.27
2023-09-23T21:52:25.563Z,8.55
2023-09-23T21:54:52.163Z,8.35
2023-09-23T21:57:18.753Z,8.32
2023-09-23T21:59:45.375Z,8.70
2023-09-23T22:02:11.999Z,8.65
2023-09-23T22:04:38.745Z,8.73
2023-09-23T22:07:05.345Z,8.18
2023-09-23T22:09:31.960Z,7.63
2023-09-23T22:11:58.480Z,7.78
2023-09-23T22:14:25.076Z,7.88
2023-09-23T22:16:51.680Z,8.10
2023-09-23T22:19:18.197Z,9.15
2023-09-23T22:21:44.727Z,8.25
2023-09-23T22:24:11.292Z,8.05
2023-09-23T22:26:37.985Z,7.70
2023-09-23T22:29:04.685Z,8.15
2023-09-23T22:31:31.258Z,7.97
2023-09-23T22:33:57.915Z,7.40
2023-09-23T22:36:24.550Z,7.97
2023-09-23T22:38:51.382Z,7.38
2023-09-23T22:41:17.951Z,7.35
2023-09-23T22:43:44.591Z,7.15
2023-09-23T22:46:11.280Z,7.82
2023-09-23T22:48:37.862Z,7.45
2023-09-23T22:51:04.396Z,8.27
2023-09-23T22:53:31.035Z,7.25
2023-09-23T22:55:57.547Z,6.75
2023-09-23T22:58:24.039Z,7.38
2023-09-23T23:00:50.659Z,6.15
2023-09-23T23:03:17.211Z,6.88
2023-09-23T23:05:43.950Z,7.03
2023-09-23T23:08:10.710Z,6.82
2023-09-23T23:10:37.205Z,6.78
2023-09-23T23:13:03.688Z,6.97
2023-09-23T23:15:30.307Z,7.20
2023-09-23T23:17:56.919Z,7.25
2023-09-23T23:20:23.871Z,6.90
2023-09-23T23:22:51.408Z,6.43
2023-09-23T23:25:17.925Z,6.72
2023-09-23T23:27:46.115Z,7.05
2023-09-23T23:30:12.689Z,6.13
2023-09-23T23:32:39.196Z,6.60
2023-09-23T23:35:05.812Z,7.15
2023-09-23T23:37:32.591Z,6.15
2023-09-23T23:39:59.052Z,5.35
2023-09-23T23:42:25.572Z,5.68
2023-09-23T23:44:52.180Z,6.78
2023-09-23T23:47:19.346Z,6.05
2023-09-23T23:49:45.900Z,6.13
2023-09-23T23:52:12.468Z,6.63
2023-09-23T23:54:38.996Z,6.28
2023-09-23T23:57:05.791Z,5.85
2023-09-23T23:59:32.460Z,6.90
